Time;durP1;ratioP1;P1;durP2;ratioP2;P2;SDS_P1;SDS_P2;PMS_P1;PMS_P2;Temp;Humidity;BMP_temperature;BMP_pressure;BME280_temperature;BME280_humidity;BME280_pressure;Samples;Min_cycle;Max_cycle;Signal;HPM_P1;HPM_P2
2022/12/22 03:26:16;;;;;;;16.13;12.50;;;8.70;99.90;;;;;;5071788;28;20986;-52
2022/12/22 03:28:42;;;;;;;15.00;12.30;;;7.90;99.90;;;;;;5071056;28;20861;-52
2022/12/22 03:31:09;;;;;;;13.03;11.33;;;8.60;99.90;;;;;;5071614;28;20528;-51
2022/12/22 03:33:37;;;;;;;16.60;13.43;;;7.80;99.90;;;;;;5071577;28;20432;-53
2022/12/22 03:36:05;;;;;;;14.63;12.10;;;8.50;99.90;;;;;;5071718;28;20772;-52
2022/12/22 03:38:33;;;;;;;14.27;12.57;;;8.60;99.90;;;;;;5070975;28;20432;-52
2022/12/22 03:40:59;;;;;;;15.10;13.30;;;8.60;99.90;;;;;;5071629;28;20436;-51
2022/12/22 03:49:10;;;;;;;13.90;11.60;;;8.40;99.90;;;;;;5053216;28;20411;-51
2022/12/22 03:51:39;;;;;;;14.17;12.13;;;8.70;99.90;;;;;;5053591;28;20425;-52
2022/12/22 03:54:07;;;;;;;14.73;13.30;;;8.60;99.90;;;;;;5071337;28;20548;-52
2022/12/22 03:56:34;;;;;;;15.67;13.23;;;8.40;99.90;;;;;;5071384;28;20411;-52
2022/12/22 03:59:00;;;;;;;13.77;12.27;;;8.50;99.90;;;;;;5070769;28;20420;-52
2022/12/22 04:01:27;;;;;;;14.00;11.97;;;8.50;99.90;;;;;;5071406;28;20919;-52
2022/12/22 04:03:54;;;;;;;14.00;12.50;;;9.00;99.90;;;;;;5071279;28;20418;-51
2022/12/22 04:06:22;;;;;;;14.50;13.07;;;8.70;99.90;;;;;;5071254;28;20448;-52
2022/12/22 04:08:48;;;;;;;14.50;13.07;;;8.40;99.90;;;;;;5073250;28;20429;-52
2022/12/22 04:14:02;;;;;;;16.30;12.87;;;8.60;99.90;;;;;;5057026;28;20440;-51
2022/12/22 04:16:28;;;;;;;14.33;12.70;;;8.40;99.90;;;;;;5074941;28;20437;-53
2022/12/22 04:18:55;;;;;;;15.30;13.23;;;8.60;99.90;;;;;;5056263;28;20422;-51
2022/12/22 04:21:24;;;;;;;15.43;13.83;;;8.80;99.90;;;;;;5074906;28;20419;-50
2022/12/22 04:23:51;;;;;;;15.83;13.80;;;8.60;99.90;;;;;;5074872;28;20786;-50
2022/12/22 04:26:18;;;;;;;16.40;14.67;;;9.20;99.90;;;;;;5074693;28;20993;-51
2022/12/22 04:28:45;;;;;;;16.20;14.40;;;9.00;99.90;;;;;;5073894;28;20412;-52
2022/12/22 04:31:11;;;;;;;16.87;13.83;;;8.20;99.90;;;;;;5075029;28;20420;-51
2022/12/22 04:33:38;;;;;;;17.53;14.77;;;8.40;99.90;;;;;;5074958;28;20427;-50
2022/12/22 04:36:06;;;;;;;16.27;14.57;;;9.00;99.90;;;;;;5074599;28;20439;-52
2022/12/22 04:38:34;;;;;;;18.03;14.80;;;8.70;99.90;;;;;;5073819;28;20792;-50
2022/12/22 04:41:00;;;;;;;17.50;14.13;;;7.90;99.90;;;;;;5074854;28;20763;-50
2022/12/22 04:43:27;;;;;;;16.73;15.07;;;8.70;99.90;;;;;;5074758;28;20453;-50
2022/12/22 04:45:54;;;;;;;20.03;15.50;;;8.90;99.90;;;;;;5074253;28;20469;-51
2022/12/22 04:48:21;;;;;;;16.53;14.80;;;8.90;99.90;;;;;;5073011;28;20457;-54
2022/12/22 04:50:50;;;;;;;18.30;14.57;;;8.50;99.90;;;;;;5056093;28;20424;-51
2022/12/22 04:53:17;;;;;;;20.90;15.03;;;8.80;99.90;;;;;;5074534;28;20458;-53
2022/12/22 04:55:47;;;;;;;20.00;16.57;;;9.00;99.90;;;;;;5074161;28;20433;-54
2022/12/22 04:58:13;;;;;;;19.00;16.67;;;8.70;99.90;;;;;;5074179;28;20444;-53
2022/12/22 05:00:40;;;;;;;18.73;15.57;;;8.30;99.90;;;;;;5073443;28;20905;-51
2022/12/22 05:03:07;;;;;;;16.97;15.20;;;8.90;99.90;;;;;;5074126;28;20416;-51
2022/12/22 05:05:34;;;;;;;17.67;15.77;;;8.80;99.90;;;;;;5073875;28;20415;-51
2022/12/22 05:08:01;;;;;;;18.40;16.03;;;8.80;99.90;;;;;;5074198;28;20408;-53
2022/12/22 05:10:27;;;;;;;17.67;15.77;;;8.60;99.90;;;;;;5073126;28;20444;-50
2022/12/22 05:12:56;;;;;;;24.60;16.77;;;9.10;99.90;;;;;;5073864;28;20457;-51
2022/12/22 05:15:22;;;;;;;17.07;15.37;;;8.70;99.90;;;;;;5073806;28;20436;-52
2022/12/22 05:17:49;;;;;;;20.70;17.43;;;8.80;99.90;;;;;;5073708;28;20430;-51
2022/12/22 05:20:16;;;;;;;21.03;18.00;;;8.80;99.90;;;;;;5072143;28;20687;-51
2022/12/22 05:22:43;;;;;;;19.50;16.93;;;8.50;99.90;;;;;;5073466;28;20490;-51
2022/12/22 05:25:10;;;;;;;19.87;17.40;;;8.70;99.90;;;;;;5055822;28;20431;-52
2022/12/22 05:27:37;;;;;;;18.70;16.80;;;8.70;99.90;;;;;;5055633;28;20460;-51
2022/12/22 05:30:07;;;;;;;18.90;16.73;;;8.80;99.90;;;;;;5072897;28;20441;-51
2022/12/22 05:32:33;;;;;;;20.40;17.43;;;8.60;99.90;;;;;;5073435;28;20436;-52
2022/12/22 05:35:01;;;;;;;20.30;17.80;;;9.10;99.90;;;;;;5073497;28;20412;-51
2022/12/22 05:37:27;;;;;;;29.03;18.70;;;8.70;99.90;;;;;;5073443;28;20415;-51
2022/12/22 05:39:54;;;;;;;21.27;17.63;;;8.70;99.90;;;;;;5072767;28;20404;-50
2022/12/22 05:45:17;;;;;;;23.23;19.03;;;8.90;99.90;;;;;;5089564;28;20514;-54
2022/12/22 05:47:45;;;;;;;21.37;18.13;;;8.50;99.90;;;;;;5089406;28;20419;-51
2022/12/22 05:50:12;;;;;;;20.70;17.67;;;8.80;99.90;;;;;;5088867;28;20407;-51
2022/12/22 05:52:40;;;;;;;25.13;19.03;;;9.20;99.90;;;;;;5089263;28;20457;-53
2022/12/22 05:55:07;;;;;;;21.73;18.00;;;8.60;99.90;;;;;;5089334;28;20429;-52
2022/12/22 05:57:34;;;;;;;24.67;18.83;;;8.80;99.90;;;;;;5089314;28;20924;-53
2022/12/22 06:00:01;;;;;;;21.93;19.30;;;9.00;99.90;;;;;;5076467;22;20476;-53
2022/12/22 06:02:29;;;;;;;26.40;21.50;;;8.80;99.90;;;;;;5048521;28;20410;-52
2022/12/22 06:04:55;;;;;;;21.20;18.60;;;8.80;99.90;;;;;;5048560;28;20453;-54
2022/12/22 06:07:22;;;;;;;22.30;18.97;;;8.70;99.90;;;;;;5048554;28;20439;-54
2022/12/22 06:09:48;;;;;;;30.73;19.63;;;8.90;99.90;;;;;;5047447;28;20465;-53
2022/12/22 06:12:15;;;;;;;28.13;20.93;;;8.80;99.90;;;;;;5048365;28;20409;-54
2022/12/22 06:14:42;;;;;;;24.27;20.10;;;8.70;99.90;;;;;;5048058;28;20427;-54
2022/12/22 06:17:09;;;;;;;26.70;20.30;;;9.00;99.90;;;;;;5048067;28;20780;-54
2022/12/22 06:19:36;;;;;;;21.97;19.60;;;8.70;99.90;;;;;;5047405;28;20457;-53
2022/12/22 06:22:03;;;;;;;29.77;21.87;;;8.80;99.90;;;;;;5048110;28;20681;-54
2022/12/22 06:24:30;;;;;;;25.73;20.97;;;9.50;99.90;;;;;;5047837;28;20828;-55
2022/12/22 06:26:56;;;;;;;27.17;22.33;;;8.80;99.90;;;;;;5048075;28;20410;-54
2022/12/22 06:29:23;;;;;;;28.57;22.47;;;8.30;99.90;;;;;;5047497;28;20437;-55
2022/12/22 06:31:50;;;;;;;27.90;22.80;;;8.30;99.90;;;;;;5047925;28;20431;-52
2022/12/22 06:34:17;;;;;;;36.10;23.40;;;8.40;99.90;;;;;;5047944;28;20515;-55
2022/12/22 06:36:45;;;;;;;25.37;21.93;;;8.40;99.90;;;;;;5047870;28;20851;-53
2022/12/22 06:39:13;;;;;;;32.73;22.67;;;8.30;99.90;;;;;;5046918;28;20437;-53
2022/12/22 06:44:24;;;;;;;25.83;21.30;;;8.90;99.90;;;;;;5047415;28;20457;-53
2022/12/22 06:46:50;;;;;;;29.23;23.20;;;8.90;99.90;;;;;;5047307;28;20439;-54
2022/12/22 06:49:17;;;;;;;27.07;22.83;;;9.00;99.90;;;;;;5046866;28;20458;-54
2022/12/22 06:51:45;;;;;;;24.17;20.87;;;8.90;99.90;;;;;;5047482;28;20413;-54
2022/12/22 06:54:12;;;;;;;24.40;20.73;;;8.70;99.90;;;;;;5047596;28;20418;-54
2022/12/22 06:56:38;;;;;;;27.33;20.80;;;8.50;99.90;;;;;;5033930;28;20447;-54
2022/12/22 06:59:05;;;;;;;21.90;19.60;;;9.10;99.90;;;;;;5033277;28;20600;-53
2022/12/22 07:01:32;;;;;;;24.87;21.00;;;8.90;99.90;;;;;;5034251;28;20511;-55
2022/12/22 07:03:58;;;;;;;23.97;21.30;;;8.80;99.90;;;;;;5033970;28;20496;-52
2022/12/22 07:06:25;;;;;;;26.07;21.23;;;8.90;99.90;;;;;;5033885;28;20972;-53
2022/12/22 07:08:53;;;;;;;25.83;19.97;;;8.50;99.90;;;;;;5032977;28;20449;-54
2022/12/22 07:11:19;;;;;;;25.30;20.57;;;9.00;99.90;;;;;;5032483;28;20463;-54
2022/12/22 07:13:47;;;;;;;24.27;19.70;;;8.80;99.90;;;;;;5033867;28;20747;-54
2022/12/22 07:16:13;;;;;;;28.93;20.70;;;8.90;99.90;;;;;;5033705;28;20427;-56
2022/12/22 07:18:42;;;;;;;22.30;18.67;;;8.60;99.90;;;;;;5033002;28;21086;-54
2022/12/22 07:21:11;;;;;;;23.13;18.87;;;8.50;99.90;;;;;;5033414;28;20432;-52
2022/12/22 07:23:39;;;;;;;24.93;21.00;;;8.90;99.90;;;;;;5033311;28;20517;-53
2022/12/22 07:26:08;;;;;;;25.80;19.43;;;8.90;99.90;;;;;;5033771;28;20756;-54
2022/12/22 07:28:35;;;;;;;23.13;19.30;;;8.90;99.90;;;;;;5032713;28;20434;-54
2022/12/22 07:31:02;;;;;;;25.80;20.40;;;9.00;99.90;;;;;;5033448;28;20442;-54
2022/12/22 07:33:29;;;;;;;30.47;20.77;;;9.10;99.90;;;;;;5032939;28;20546;-53
2022/12/22 07:36:08;;;;;;;27.03;21.87;;;9.10;99.90;;;;;;5032906;28;20410;-53
2022/12/22 07:38:36;;;;;;;23.47;19.80;;;9.20;99.90;;;;;;5032384;28;20777;-53
2022/12/22 07:42:43;;;;;;;26.07;20.23;;;9.50;99.90;;;;;;5033407;28;20924;-53
2022/12/22 07:43:51;;;;;;;23.70;19.63;;;9.00;99.90;;;;;;5032808;28;20442;-53
2022/12/22 07:46:18;;;;;;;24.63;19.63;;;9.10;99.90;;;;;;5033267;28;20414;-52
2022/12/22 07:51:32;;;;;;;23.80;18.90;;;8.90;99.90;;;;;;5033066;28;20402;-54
2022/12/22 07:53:59;;;;;;;22.70;20.20;;;8.90;99.90;;;;;;5032798;28;20414;-52
2022/12/22 07:56:25;;;;;;;24.10;20.67;;;9.00;99.90;;;;;;5032814;28;21006;-53
2022/12/22 07:58:53;;;;;;;24.60;19.37;;;9.40;99.90;;;;;;5032074;28;20564;-52
2022/12/22 08:01:20;;;;;;;24.63;20.23;;;8.80;99.90;;;;;;5032427;28;20428;-52
2022/12/22 08:03:46;;;;;;;23.00;19.57;;;8.70;99.90;;;;;;5031121;28;20878;-53
2022/12/22 08:06:13;;;;;;;22.47;19.57;;;8.90;99.90;;;;;;5032471;28;20413;-53
2022/12/22 08:08:39;;;;;;;25.67;20.00;;;9.20;99.90;;;;;;5031414;28;20432;-54
2022/12/22 08:11:06;;;;;;;19.80;17.40;;;9.10;99.90;;;;;;5032619;28;20809;-54
2022/12/22 08:13:33;;;;;;;19.80;17.30;;;9.20;99.90;;;;;;5032654;28;20414;-54
2022/12/22 08:16:04;;;;;;;24.33;18.50;;;9.00;99.90;;;;;;5032620;28;20409;-54
2022/12/22 08:18:31;;;;;;;25.43;18.67;;;9.20;99.90;;;;;;5031728;28;20479;-52
2022/12/22 08:20:57;;;;;;;22.33;18.20;;;9.00;99.90;;;;;;5032239;28;20438;-53
2022/12/22 08:23:24;;;;;;;24.47;19.40;;;9.20;99.90;;;;;;5032033;28;20451;-54
2022/12/22 08:25:55;;;;;;;26.33;18.53;;;9.00;99.90;;;;;;5031880;28;20793;-52
2022/12/22 08:28:22;;;;;;;26.53;18.80;;;9.20;99.90;;;;;;5032233;28;20437;-54
2022/12/22 08:30:49;;;;;;;19.10;16.70;;;9.10;99.90;;;;;;5031986;28;20460;-54
2022/12/22 08:33:17;;;;;;;22.20;17.67;;;9.30;99.90;;;;;;5032213;28;20418;-54
2022/12/22 08:35:44;;;;;;;23.37;18.17;;;9.20;99.90;;;;;;5031856;28;20414;-52
2022/12/22 08:38:12;;;;;;;27.17;21.37;;;9.10;99.90;;;;;;5031943;28;20779;-53
2022/12/22 08:40:39;;;;;;;24.43;18.17;;;9.10;99.90;;;;;;5031015;28;20406;-52
2022/12/22 08:43:09;;;;;;;23.40;17.90;;;9.10;99.90;;;;;;5031499;28;20494;-54
2022/12/22 08:45:35;;;;;;;23.23;15.73;;;9.30;99.90;;;;;;5031898;28;20653;-52
2022/12/22 08:48:02;;;;;;;21.27;17.40;;;9.00;99.90;;;;;;5031719;28;20509;-54
2022/12/22 08:50:30;;;;;;;21.43;19.10;;;9.20;99.90;;;;;;5030667;28;20414;-54
2022/12/22 08:53:01;;;;;;;20.27;18.07;;;8.70;99.90;;;;;;5031424;28;20417;-52
2022/12/22 08:55:28;;;;;;;23.10;19.30;;;9.30;99.90;;;;;;5032039;28;20413;-53
2022/12/22 08:57:55;;;;;;;24.90;21.57;;;8.80;99.90;;;;;;5031711;28;20417;-53
2022/12/22 09:00:22;;;;;;;23.23;19.00;;;9.30;99.90;;;;;;5031014;28;20417;-53
2022/12/22 09:02:49;;;;;;;25.90;19.93;;;9.30;99.90;;;;;;5031716;28;20425;-54
2022/12/22 09:05:16;;;;;;;25.23;21.50;;;9.90;99.90;;;;;;5030023;28;20453;-54
2022/12/22 09:07:45;;;;;;;27.53;21.90;;;9.40;99.90;;;;;;5031772;28;20409;-54
2022/12/22 09:10:13;;;;;;;24.27;20.67;;;9.40;99.90;;;;;;5030792;28;20492;-53
2022/12/22 09:12:39;;;;;;;23.03;19.00;;;9.20;99.90;;;;;;5031487;28;20609;-55
2022/12/22 09:15:08;;;;;;;23.90;19.50;;;9.60;99.90;;;;;;5031495;28;20410;-53
2022/12/22 09:17:36;;;;;;;20.50;18.30;;;9.30;99.90;;;;;;5031361;28;20415;-54
2022/12/22 09:20:04;;;;;;;22.00;18.50;;;9.80;99.90;;;;;;5029114;28;20490;-53
2022/12/22 09:22:31;;;;;;;19.47;17.20;;;9.50;99.90;;;;;;5031613;28;20435;-53
2022/12/22 09:24:59;;;;;;;22.50;18.10;;;9.90;99.90;;;;;;5031252;28;20496;-53
2022/12/22 09:27:25;;;;;;;26.83;18.90;;;9.30;99.90;;;;;;5031499;28;20903;-54
2022/12/22 09:29:52;;;;;;;27.23;17.97;;;9.20;99.90;;;;;;5030375;28;20826;-53
2022/12/22 09:32:18;;;;;;;23.47;20.47;;;9.30;99.90;;;;;;5031231;28;20452;-53
2022/12/22 09:34:45;;;;;;;22.60;17.03;;;9.50;99.90;;;;;;5031453;28;21000;-52
2022/12/22 09:37:14;;;;;;;22.90;19.30;;;10.00;99.90;;;;;;5031401;28;20406;-52
2022/12/22 09:39:40;;;;;;;22.60;19.50;;;9.50;99.90;;;;;;5030539;28;20459;-54
2022/12/22 09:42:14;;;;;;;19.67;16.73;;;9.80;99.90;;;;;;5030962;28;20446;-54
2022/12/22 09:44:44;;;;;;;20.47;17.30;;;9.50;99.90;;;;;;5029216;28;20482;-53
2022/12/22 09:47:18;;;;;;;19.50;16.97;;;9.60;99.90;;;;;;5031224;28;20413;-53
2022/12/22 09:49:45;;;;;;;20.27;16.00;;;9.70;99.90;;;;;;5029256;28;20565;-54
2022/12/22 09:52:24;;;;;;;19.13;15.87;;;9.50;99.90;;;;;;5029442;28;20447;-55
2022/12/22 09:54:50;;;;;;;20.97;16.13;;;9.60;99.90;;;;;;5030815;28;20446;-54
2022/12/22 09:57:19;;;;;;;23.00;17.00;;;9.50;99.90;;;;;;5030754;28;20402;-55
2022/12/22 09:59:46;;;;;;;21.60;16.87;;;9.60;99.90;;;;;;5023722;28;20462;-54
2022/12/22 10:02:22;;;;;;;20.43;17.20;;;9.90;99.90;;;;;;5029643;28;20443;-54
2022/12/22 10:05:00;;;;;;;19.33;15.77;;;10.00;99.90;;;;;;5030405;28;20438;-54
2022/12/22 10:07:32;;;;;;;22.30;17.20;;;9.10;99.90;;;;;;5021895;28;20415;-54
2022/12/22 10:10:04;;;;;;;19.90;16.03;;;9.80;99.90;;;;;;5029108;28;20571;-53
2022/12/22 10:12:32;;;;;;;18.47;14.80;;;9.70;99.90;;;;;;5027729;28;20417;-50
2022/12/22 10:14:58;;;;;;;20.53;15.70;;;9.70;99.90;;;;;;5030026;28;20447;-54
2022/12/22 10:17:28;;;;;;;23.30;14.90;;;9.80;99.90;;;;;;5013388;28;20467;-52
2022/12/22 10:20:08;;;;;;;21.10;15.60;;;9.70;99.90;;;;;;5021558;28;20433;-52
2022/12/22 10:22:40;;;;;;;18.50;14.13;;;9.70;99.90;;;;;;5020804;28;20915;-52
2022/12/22 10:25:25;;;;;;;17.33;14.27;;;9.80;99.90;;;;;;5025636;28;20481;-53
2022/12/22 10:27:55;;;;;;;15.40;13.40;;;9.90;99.90;;;;;;5029938;28;20903;-53
2022/12/22 10:30:24;;;;;;;17.27;14.13;;;10.00;99.90;;;;;;5030504;28;20427;-53
2022/12/22 10:33:02;;;;;;;19.80;15.90;;;9.90;99.90;;;;;;5034128;28;20410;-54
2022/12/22 10:35:45;;;;;;;20.33;15.50;;;10.00;99.90;;;;;;5016728;28;20474;-54
2022/12/22 10:38:20;;;;;;;17.00;14.30;;;10.00;99.90;;;;;;5026806;28;20821;-53
2022/12/22 10:40:48;;;;;;;17.03;13.87;;;10.00;99.90;;;;;;5032934;28;20784;-53
2022/12/22 10:43:22;;;;;;;15.37;13.33;;;9.90;99.90;;;;;;5033949;28;20422;-53
2022/12/22 10:45:49;;;;;;;19.83;13.40;;;10.10;99.90;;;;;;5033834;28;20445;-52
2022/12/22 10:48:16;;;;;;;24.13;14.87;;;10.20;99.90;;;;;;5033926;28;20451;-53
2022/12/22 10:50:48;;;;;;;16.40;14.70;;;10.10;99.90;;;;;;5033099;28;20511;-53
2022/12/22 10:53:15;;;;;;;15.73;14.10;;;10.00;99.90;;;;;;5033660;28;20406;-53
2022/12/22 10:55:43;;;;;;;15.97;13.57;;;10.30;99.90;;;;;;5032839;28;20406;-52
2022/12/22 10:58:17;;;;;;;17.73;13.37;;;9.90;99.90;;;;;;5022950;28;20820;-54
2022/12/22 11:01:01;;;;;;;16.53;13.70;;;10.30;99.90;;;;;;5033125;28;20420;-52
2022/12/22 11:03:30;;;;;;;15.83;13.00;;;10.20;99.90;;;;;;5033581;28;20433;-53
2022/12/22 11:05:57;;;;;;;14.30;12.83;;;9.80;99.90;;;;;;5032098;28;20968;-52
2022/12/22 11:12:21;;;;;;;13.23;11.77;;;10.20;99.90;;;;;;5030340;28;20454;-53
2022/12/22 11:14:55;;;;;;;15.50;13.77;;;9.90;99.90;;;;;;5032116;28;20430;-55
2022/12/22 11:17:34;;;;;;;14.90;12.40;;;10.20;99.90;;;;;;5033688;28;20758;-53
2022/12/22 11:20:20;;;;;;;16.10;12.80;;;10.10;99.90;;;;;;5032405;28;20430;-54
2022/12/22 11:22:54;;;;;;;18.63;13.23;;;9.90;99.90;;;;;;5032943;28;20442;-55
2022/12/22 11:25:29;;;;;;;19.33;13.03;;;10.10;99.90;;;;;;5033338;28;20458;-53
2022/12/22 11:28:15;;;;;;;16.53;12.83;;;10.10;99.90;;;;;;5032066;28;20482;-53
2022/12/22 11:30:52;;;;;;;16.67;12.13;;;10.30;99.90;;;;;;5032262;28;20422;-52
2022/12/22 11:33:30;;;;;;;17.83;11.90;;;10.40;99.90;;;;;;5031377;28;20822;-52
2022/12/22 11:36:00;;;;;;;18.70;14.10;;;10.00;99.90;;;;;;5032661;28;20495;-53
2022/12/22 11:38:44;;;;;;;17.73;13.60;;;9.90;99.90;;;;;;5029451;28;20512;-52
2022/12/22 11:41:24;;;;;;;16.23;13.50;;;10.30;99.90;;;;;;5029441;28;20452;-54
2022/12/22 11:44:05;;;;;;;20.27;13.20;;;10.40;99.90;;;;;;5029142;28;21004;-52
2022/12/22 11:46:41;;;;;;;15.87;13.43;;;10.60;99.90;;;;;;5029562;28;20516;-53
2022/12/22 11:49:31;;;;;;;16.85;14.02;;;10.60;99.90;;;;;;5030509;28;20831;-54
2022/12/22 11:52:09;;;;;;;15.20;13.55;;;10.40;99.90;;;;;;5011236;28;20437;-52
2022/12/22 11:54:45;;;;;;;15.70;12.50;;;10.90;99.90;;;;;;5012935;28;20213;-53
2022/12/22 11:57:26;;;;;;;12.70;11.20;;;10.60;99.90;;;;;;5016000;28;20530;-54
2022/12/22 12:00:02;;;;;;;14.47;12.83;;;10.20;99.90;;;;;;5069030;22;20503;-54
2022/12/22 12:03:10;;;;;;;24.90;15.17;;;10.80;99.90;;;;;;5053095;28;20439;-56
2022/12/22 12:05:54;;;;;;;18.42;16.52;;;10.60;99.90;;;;;;5051727;28;20487;-57
2022/12/22 12:08:28;;;;;;;17.15;15.07;;;10.80;99.90;;;;;;5051012;28;20761;-56
2022/12/22 12:11:02;;;;;;;18.70;14.00;;;11.30;99.90;;;;;;5052877;28;20606;-57
2022/12/22 12:13:38;;;;;;;17.23;12.60;;;11.30;99.90;;;;;;5052894;28;20840;-56
2022/12/22 12:16:17;;;;;;;15.60;13.47;;;11.00;99.90;;;;;;5033111;28;20537;-57
2022/12/22 12:19:00;;;;;;;13.87;12.53;;;11.00;99.90;;;;;;5029412;28;20498;-56
2022/12/22 12:21:33;;;;;;;13.30;12.00;;;10.90;99.90;;;;;;5032497;28;20410;-55
2022/12/22 12:24:21;;;;;;;14.53;13.03;;;10.30;99.90;;;;;;5032341;28;20423;-57
2022/12/22 12:27:00;;;;;;;14.90;12.20;;;11.00;99.90;;;;;;5032183;28;20481;-57
2022/12/22 12:29:28;;;;;;;12.73;11.40;;;10.90;99.90;;;;;;5031611;28;20438;-54
2022/12/22 12:31:59;;;;;;;14.57;12.13;;;10.70;99.90;;;;;;5032037;28;20440;-56
2022/12/22 12:34:29;;;;;;;15.00;11.83;;;10.80;99.90;;;;;;5027535;28;20531;-57
2022/12/22 12:37:02;;;;;;;15.33;13.23;;;10.60;99.90;;;;;;5032482;28;20437;-56
2022/12/22 12:39:33;;;;;;;14.30;11.77;;;10.70;99.90;;;;;;5031878;28;20450;-54
2022/12/22 12:42:06;;;;;;;28.73;14.53;;;10.70;99.90;;;;;;5032354;28;20440;-56
2022/12/22 12:44:36;;;;;;;15.80;12.17;;;11.00;99.90;;;;;;5032768;28;20500;-56
2022/12/22 12:47:22;;;;;;;14.07;12.70;;;11.00;99.90;;;;;;5032419;28;20488;-56
2022/12/22 12:49:57;;;;;;;12.70;11.37;;;10.80;99.90;;;;;;5031679;28;20467;-54
2022/12/22 12:53:12;;;;;;;13.17;11.70;;;10.70;99.90;;;;;;5027192;28;20482;-56
2022/12/22 12:56:08;;;;;;;14.13;12.70;;;10.50;99.90;;;;;;5032306;28;20427;-54
2022/12/22 12:58:53;;;;;;;14.10;12.70;;;10.60;99.90;;;;;;4996084;28;20442;-57
2022/12/22 13:01:53;;;;;;;14.67;13.03;;;10.90;99.90;;;;;;5031674;28;20934;-55
2022/12/22 13:05:11;;;;;;;15.37;13.83;;;10.80;99.90;;;;;;5028728;28;20430;-56
2022/12/22 13:08:08;;;;;;;15.23;13.63;;;10.70;99.90;;;;;;5030010;28;20447;-57
2022/12/22 13:10:37;;;;;;;59.93;30.80;;;11.00;99.90;;;;;;5030380;28;20803;-57
2022/12/22 13:13:06;;;;;;;24.60;15.40;;;10.90;99.90;;;;;;5031769;28;20433;-57
2022/12/22 13:15:34;;;;;;;16.10;14.43;;;10.70;99.90;;;;;;5031826;28;20403;-56
2022/12/22 13:18:02;;;;;;;14.27;12.57;;;10.80;99.90;;;;;;5031984;28;20411;-56
2022/12/22 13:20:31;;;;;;;15.03;13.63;;;10.90;99.90;;;;;;5031028;28;20488;-57
2022/12/22 13:23:00;;;;;;;15.07;13.50;;;10.70;99.90;;;;;;5019728;28;20472;-55
2022/12/22 13:25:41;;;;;;;15.77;12.80;;;10.80;99.90;;;;;;5031468;28;20495;-55
2022/12/22 13:28:14;;;;;;;14.00;12.70;;;10.20;99.90;;;;;;5031644;28;20443;-54
2022/12/22 13:30:45;;;;;;;18.93;16.53;;;10.60;99.90;;;;;;5027232;28;20451;-54
2022/12/22 13:33:17;;;;;;;22.97;16.80;;;10.80;99.90;;;;;;5031472;28;20498;-54
2022/12/22 13:35:45;;;;;;;15.33;13.67;;;11.00;99.90;;;;;;5030937;28;20408;-57
2022/12/22 13:38:28;;;;;;;15.20;11.77;;;10.50;99.90;;;;;;5016560;28;20453;-55
2022/12/22 13:40:55;;;;;;;18.03;13.07;;;10.70;99.90;;;;;;5030424;28;20451;-55
2022/12/22 13:43:24;;;;;;;15.97;13.60;;;10.80;99.90;;;;;;5031868;28;20948;-56
2022/12/22 13:45:53;;;;;;;15.03;12.60;;;10.70;99.90;;;;;;5031506;28;20462;-55
2022/12/22 13:48:24;;;;;;;13.53;12.13;;;10.90;99.90;;;;;;5031093;28;20978;-54
2022/12/22 13:50:52;;;;;;;14.50;12.77;;;10.60;99.90;;;;;;5031395;28;20535;-55
2022/12/22 13:53:28;;;;;;;13.63;11.40;;;10.80;99.90;;;;;;5029086;28;20439;-56
2022/12/22 13:55:54;;;;;;;13.33;12.07;;;11.00;99.90;;;;;;5019193;28;20434;-54
2022/12/22 13:58:27;;;;;;;15.17;11.73;;;10.50;99.90;;;;;;5029194;28;20849;-56
2022/12/22 14:01:02;;;;;;;12.03;10.83;;;10.90;99.90;;;;;;5031079;28;20543;-57
2022/12/22 14:03:29;;;;;;;12.23;10.77;;;10.80;99.90;;;;;;5030791;28;20423;-56
2022/12/22 14:05:55;;;;;;;16.60;12.40;;;10.80;99.90;;;;;;5032683;28;20451;-54
2022/12/22 14:08:23;;;;;;;15.00;11.30;;;10.80;99.90;;;;;;5034834;28;20494;-54
2022/12/22 14:10:50;;;;;;;14.33;10.87;;;11.10;99.90;;;;;;5035037;28;20440;-56
2022/12/22 14:13:20;;;;;;;12.70;11.37;;;10.70;99.90;;;;;;5034795;28;20490;-55
2022/12/22 14:15:58;;;;;;;13.87;11.77;;;11.10;99.90;;;;;;5034471;28;20444;-56
2022/12/22 14:18:26;;;;;;;11.60;9.90;;;10.70;99.90;;;;;;5038690;28;20519;-54
2022/12/22 14:20:53;;;;;;;14.40;10.20;;;10.80;99.90;;;;;;5066643;28;20542;-55
2022/12/22 14:23:24;;;;;;;15.20;11.80;;;10.90;99.90;;;;;;5052766;28;20422;-55
2022/12/22 14:25:53;;;;;;;13.07;11.67;;;10.60;99.90;;;;;;5051922;28;20829;-55
2022/12/22 14:28:22;;;;;;;15.10;13.10;;;10.70;99.90;;;;;;5053323;28;20431;-55
2022/12/22 14:30:53;;;;;;;13.50;12.10;;;10.90;99.90;;;;;;5052792;28;20555;-55
2022/12/22 14:33:28;;;;;;;15.23;13.20;;;10.50;99.90;;;;;;5053632;28;20431;-54
2022/12/22 14:36:12;;;;;;;17.27;14.07;;;10.70;99.90;;;;;;5050988;28;20791;-56
2022/12/22 14:38:42;;;;;;;20.27;14.10;;;10.90;99.90;;;;;;5033995;28;20449;-57
2022/12/22 14:41:40;;;;;;;13.93;12.47;;;10.70;99.90;;;;;;5034838;28;20459;-55
2022/12/22 14:44:04;;;;;;;15.10;11.97;;;10.20;99.90;;;;;;5033893;28;20456;-56
2022/12/22 14:46:32;;;;;;;11.43;10.03;;;10.60;99.90;;;;;;5034688;28;20475;-54
2022/12/22 14:48:59;;;;;;;13.63;10.67;;;10.80;99.90;;;;;;5033891;28;20441;-55
2022/12/22 14:51:27;;;;;;;9.80;8.77;;;10.70;99.90;;;;;;5043099;28;20498;-55
2022/12/22 14:53:56;;;;;;;14.23;9.20;;;10.80;99.90;;;;;;5036519;28;20407;-56
2022/12/22 14:56:23;;;;;;;10.73;9.63;;;10.80;99.90;;;;;;5034243;28;20453;-55
2022/12/22 14:58:50;;;;;;;12.60;11.17;;;10.40;99.90;;;;;;5032076;28;20710;-55
2022/12/22 15:01:23;;;;;;;13.10;11.13;;;10.80;99.90;;;;;;5034763;28;20436;-55
2022/12/22 15:04:01;;;;;;;10.13;9.00;;;10.80;99.90;;;;;;5034449;28;20527;-55
2022/12/22 15:06:37;;;;;;;10.30;9.30;;;10.90;99.90;;;;;;5033764;28;20571;-53
2022/12/22 15:09:23;;;;;;;9.47;8.57;;;10.10;99.90;;;;;;5033861;28;20431;-54
2022/12/22 15:11:53;;;;;;;14.37;8.77;;;10.70;99.90;;;;;;5034231;28;20439;-53
2022/12/22 15:14:23;;;;;;;11.93;10.70;;;10.50;99.90;;;;;;5034194;28;20439;-54
2022/12/22 15:16:50;;;;;;;11.53;9.30;;;10.70;99.90;;;;;;5033612;28;20929;-54
2022/12/22 15:19:21;;;;;;;9.23;8.23;;;10.40;99.90;;;;;;5033437;28;20453;-54
2022/12/22 15:21:48;;;;;;;9.63;8.30;;;10.60;99.90;;;;;;5033929;28;20801;-54
2022/12/22 15:24:17;;;;;;;9.87;8.87;;;10.50;99.90;;;;;;5033640;28;20531;-53
2022/12/22 15:26:44;;;;;;;12.30;8.23;;;10.60;99.90;;;;;;5033550;28;20489;-54
2022/12/22 15:29:11;;;;;;;11.97;10.63;;;10.40;99.90;;;;;;5033270;28;20818;-54
2022/12/22 15:31:39;;;;;;;10.13;9.13;;;10.30;99.90;;;;;;5034205;28;20682;-54
2022/12/22 15:34:13;;;;;;;9.43;8.47;;;10.50;99.90;;;;;;5033786;28;20439;-55
2022/12/22 15:36:41;;;;;;;9.10;8.13;;;10.50;99.90;;;;;;5033495;28;20439;-54
2022/12/22 15:39:14;;;;;;;12.10;8.93;;;10.80;99.90;;;;;;5033124;28;20451;-54
2022/12/22 15:41:40;;;;;;;12.03;9.47;;;10.80;99.90;;;;;;5032964;28;20469;-53
2022/12/22 15:44:07;;;;;;;10.60;8.87;;;10.60;99.90;;;;;;5033731;28;20432;-53
2022/12/22 15:46:34;;;;;;;10.80;9.40;;;10.40;99.90;;;;;;5033230;28;20481;-54
2022/12/22 15:49:01;;;;;;;10.23;8.83;;;10.50;99.90;;;;;;5032826;28;20469;-52
2022/12/22 15:51:32;;;;;;;11.47;10.17;;;10.60;99.90;;;;;;5032699;28;20512;-54
2022/12/22 15:54:00;;;;;;;11.10;9.03;;;10.70;99.90;;;;;;5032989;28;20435;-55
2022/12/22 15:56:32;;;;;;;11.13;10.13;;;10.70;99.90;;;;;;5032514;28;20447;-54
2022/12/22 15:58:59;;;;;;;11.40;10.30;;;10.60;99.90;;;;;;5032647;28;20889;-52
2022/12/22 16:01:26;;;;;;;12.53;10.23;;;10.30;99.90;;;;;;5033171;28;20436;-53
2022/12/22 16:03:52;;;;;;;13.80;11.67;;;10.60;99.90;;;;;;5029832;28;20448;-53
2022/12/22 16:06:19;;;;;;;13.47;9.77;;;10.30;99.90;;;;;;5035740;28;20838;-52
2022/12/22 16:08:49;;;;;;;12.17;10.30;;;10.40;99.90;;;;;;5032577;28;20467;-54
2022/12/22 16:11:17;;;;;;;12.30;10.87;;;10.40;99.90;;;;;;5033414;28;20530;-54
2022/12/22 16:13:45;;;;;;;11.70;10.50;;;10.20;99.90;;;;;;5033009;28;20855;-54
2022/12/22 16:16:12;;;;;;;11.60;10.40;;;10.60;99.90;;;;;;5035879;28;20978;-54
2022/12/22 16:18:38;;;;;;;11.93;10.70;;;10.30;99.90;;;;;;5037628;28;20455;-55
2022/12/22 16:21:11;;;;;;;12.67;10.83;;;10.10;99.90;;;;;;5046229;28;20458;-54
2022/12/22 16:23:38;;;;;;;13.03;11.03;;;10.30;99.90;;;;;;5040109;28;20434;-54
2022/12/22 16:26:05;;;;;;;13.47;12.10;;;10.40;99.90;;;;;;5012734;28;20486;-54
2022/12/22 16:28:33;;;;;;;14.60;13.10;;;10.20;99.90;;;;;;5017458;28;20442;-55
2022/12/22 16:31:00;;;;;;;15.60;12.13;;;10.10;99.90;;;;;;5031579;28;20764;-53
2022/12/22 16:33:27;;;;;;;17.77;14.70;;;10.90;99.90;;;;;;5031477;28;20432;-53
2022/12/22 16:35:54;;;;;;;16.53;14.50;;;10.70;99.90;;;;;;5032561;28;20659;-54